sensor_id;sensor_type;location;lat;lon;timestamp;temperature;humidity
76099;DHT22;64828;49.956;8.636;2023-04-29T00:00:10;10.30;93.50
76099;DHT22;64828;49.956;8.636;2023-04-29T00:00:26;10.30;93.50
76099;DHT22;64828;49.956;8.636;2023-04-29T00:00:42;10.30;93.50
76099;DHT22;64828;49.956;8.636;2023-04-29T00:00:57;10.30;93.50
76099;DHT22;64828;49.956;8.636;2023-04-29T00:01:13;10.30;93.60
76099;DHT22;64828;49.956;8.636;2023-04-29T00:01:29;10.30;93.60
76099;DHT22;64828;49.956;8.636;2023-04-29T00:01:44;10.30;93.60
76099;DHT22;64828;49.956;8.636;2023-04-29T00:02:00;10.30;93.60
76099;DHT22;64828;49.956;8.636;2023-04-29T00:02:16;10.30;93.60
76099;DHT22;64828;49.956;8.636;2023-04-29T00:02:32;10.30;93.50
76099;DHT22;64828;49.956;8.636;2023-04-29T00:02:47;10.30;93.50
76099;DHT22;64828;49.956;8.636;2023-04-29T00:03:03;10.30;93.60
76099;DHT22;64828;49.956;8.636;2023-04-29T00:03:18;10.30;93.60
76099;DHT22;64828;49.956;8.636;2023-04-29T00:03:34;10.30;93.60
76099;DHT22;64828;49.956;8.636;2023-04-29T00:03:50;10.30;93.70
76099;DHT22;64828;49.956;8.636;2023-04-29T00:04:05;10.40;93.80
76099;DHT22;64828;49.956;8.636;2023-04-29T00:04:22;10.30;93.80
76099;DHT22;64828;49.956;8.636;2023-04-29T00:04:37;10.40;93.80
76099;DHT22;64828;49.956;8.636;2023-04-29T00:04:53;10.40;93.80
76099;DHT22;64828;49.956;8.636;2023-04-29T00:05:09;10.40;93.90
76099;DHT22;64828;49.956;8.636;2023-04-29T00:05:25;10.40;93.90
76099;DHT22;64828;49.956;8.636;2023-04-29T00:05:40;10.40;93.90
76099;DHT22;64828;49.956;8.636;2023-04-29T00:05:59;10.40;93.90
76099;DHT22;64828;49.956;8.636;2023-04-29T00:06:15;10.40;93.90
76099;DHT22;64828;49.956;8.636;2023-04-29T00:06:31;10.40;94.00
76099;DHT22;64828;49.956;8.636;2023-04-29T00:06:47;10.40;93.90
76099;DHT22;64828;49.956;8.636;2023-04-29T00:07:03;10.40;93.90
76099;DHT22;64828;49.956;8.636;2023-04-29T00:07:18;10.40;93.90
76099;DHT22;64828;49.956;8.636;2023-04-29T00:07:34;10.40;93.90
76099;DHT22;64828;49.956;8.636;2023-04-29T00:07:50;10.40;94.00
76099;DHT22;64828;49.956;8.636;2023-04-29T00:08:06;10.40;94.00
76099;DHT22;64828;49.956;8.636;2023-04-29T00:08:21;10.40;94.00
76099;DHT22;64828;49.956;8.636;2023-04-29T00:08:37;10.50;94.00
76099;DHT22;64828;49.956;8.636;2023-04-29T00:08:53;10.40;94.00
76099;DHT22;64828;49.956;8.636;2023-04-29T00:09:08;10.40;94.00
76099;DHT22;64828;49.956;8.636;2023-04-29T00:09:24;10.50;94.00
76099;DHT22;64828;49.956;8.636;2023-04-29T00:09:40;10.40;94.00
76099;DHT22;64828;49.956;8.636;2023-04-29T00:09:56;10.50;94.00
76099;DHT22;64828;49.956;8.636;2023-04-29T00:10:11;10.40;94.00
76099;DHT22;64828;49.956;8.636;2023-04-29T00:10:29;10.40;94.00
76099;DHT22;64828;49.956;8.636;2023-04-29T00:10:44;10.50;94.00
76099;DHT22;64828;49.956;8.636;2023-04-29T00:11:00;10.40;94.00
76099;DHT22;64828;49.956;8.636;2023-04-29T00:11:15;10.50;94.00
76099;DHT22;64828;49.956;8.636;2023-04-29T00:11:31;10.50;94.00
76099;DHT22;64828;49.956;8.636;2023-04-29T00:11:46;10.40;94.00
76099;DHT22;64828;49.956;8.636;2023-04-29T00:12:02;10.50;94.00
76099;DHT22;64828;49.956;8.636;2023-04-29T00:12:18;10.50;94.00
76099;DHT22;64828;49.956;8.636;2023-04-29T00:12:34;10.50;94.00
76099;DHT22;64828;49.956;8.636;2023-04-29T00:12:49;10.50;94.00
76099;DHT22;64828;49.956;8.636;2023-04-29T00:13:05;10.50;94.00
76099;DHT22;64828;49.956;8.636;2023-04-29T00:13:21;10.40;94.00
76099;DHT22;64828;49.956;8.636;2023-04-29T00:13:37;10.50;94.00
76099;DHT22;64828;49.956;8.636;2023-04-29T00:13:55;10.50;94.00
76099;DHT22;64828;49.956;8.636;2023-04-29T00:14:10;10.50;94.00
76099;DHT22;64828;49.956;8.636;2023-04-29T00:14:26;10.50;94.00
76099;DHT22;64828;49.956;8.636;2023-04-29T00:14:42;10.50;94.00
76099;DHT22;64828;49.956;8.636;2023-04-29T00:14:58;10.50;94.00
76099;DHT22;64828;49.956;8.636;2023-04-29T00:15:14;10.50;94.00
76099;DHT22;64828;49.956;8.636;2023-04-29T00:15:30;10.50;94.00
76099;DHT22;64828;49.956;8.636;2023-04-29T00:15:47;10.50;94.00
76099;DHT22;64828;49.956;8.636;2023-04-29T00:16:03;10.50;94.00
76099;DHT22;64828;49.956;8.636;2023-04-29T00:16:19;10.50;94.00
76099;DHT22;64828;49.956;8.636;2023-04-29T00:16:35;10.50;94.00
76099;DHT22;64828;49.956;8.636;2023-04-29T00:16:52;10.50;94.00
76099;DHT22;64828;49.956;8.636;2023-04-29T00:17:08;10.50;94.00
76099;DHT22;64828;49.956;8.636;2023-04-29T00:17:24;10.50;94.00
76099;DHT22;64828;49.956;8.636;2023-04-29T00:17:39;10.50;94.00
76099;DHT22;64828;49.956;8.636;2023-04-29T00:17:56;10.50;94.00
76099;DHT22;64828;49.956;8.636;2023-04-29T00:18:14;10.50;94.00
76099;DHT22;64828;49.956;8.636;2023-04-29T00:18:30;10.50;94.10
76099;DHT22;64828;49.956;8.636;2023-04-29T00:18:46;10.50;94.10
76099;DHT22;64828;49.956;8.636;2023-04-29T00:19:02;10.50;94.10
76099;DHT22;64828;49.956;8.636;2023-04-29T00:19:17;10.50;94.10
76099;DHT22;64828;49.956;8.636;2023-04-29T00:19:34;10.50;94.10
76099;DHT22;64828;49.956;8.636;2023-04-29T00:19:49;10.50;94.00
76099;DHT22;64828;49.956;8.636;2023-04-29T00:20:06;10.50;94.00
76099;DHT22;64828;49.956;8.636;2023-04-29T00:20:22;10.50;94.00
76099;DHT22;64828;49.956;8.636;2023-04-29T00:20:38;10.50;94.00
76099;DHT22;64828;49.956;8.636;2023-04-29T00:20:54;10.50;94.00
76099;DHT22;64828;49.956;8.636;2023-04-29T00:21:09;10.50;94.10
76099;DHT22;64828;49.956;8.636;2023-04-29T00:21:25;10.50;94.10
76099;DHT22;64828;49.956;8.636;2023-04-29T00:21:44;10.50;94.10
76099;DHT22;64828;49.956;8.636;2023-04-29T00:22:01;10.50;94.10
76099;DHT22;64828;49.956;8.636;2023-04-29T00:22:16;10.50;94.10
76099;DHT22;64828;49.956;8.636;2023-04-29T00:22:34;10.50;94.00
76099;DHT22;64828;49.956;8.636;2023-04-29T00:22:50;10.50;94.00
76099;DHT22;64828;49.956;8.636;2023-04-29T00:23:05;10.40;94.00
76099;DHT22;64828;49.956;8.636;2023-04-29T00:23:21;10.40;93.90
76099;DHT22;64828;49.956;8.636;2023-04-29T00:23:37;10.40;93.80
76099;DHT22;64828;49.956;8.636;2023-04-29T00:23:53;10.30;93.70
76099;DHT22;64828;49.956;8.636;2023-04-29T00:24:08;10.30;93.60
76099;DHT22;64828;49.956;8.636;2023-04-29T00:24:26;10.30;93.60
76099;DHT22;64828;49.956;8.636;2023-04-29T00:24:42;10.30;93.60
76099;DHT22;64828;49.956;8.636;2023-04-29T00:24:57;10.30;93.60
76099;DHT22;64828;49.956;8.636;2023-04-29T00:25:13;10.30;93.60
76099;DHT22;64828;49.956;8.636;2023-04-29T00:25:29;10.30;93.60
76099;DHT22;64828;49.956;8.636;2023-04-29T00:25:58;10.30;93.60
76099;DHT22;64828;49.956;8.636;2023-04-29T00:26:26;10.30;93.60
76099;DHT22;64828;49.956;8.636;2023-04-29T00:26:46;10.20;93.60
76099;DHT22;64828;49.956;8.636;2023-04-29T00:27:03;10.30;93.70
76099;DHT22;64828;49.956;8.636;2023-04-29T00:27:20;10.30;93.70
76099;DHT22;64828;49.956;8.636;2023-04-29T00:27:35;10.30;93.70
76099;DHT22;64828;49.956;8.636;2023-04-29T00:27:51;10.30;93.70
76099;DHT22;64828;49.956;8.636;2023-04-29T00:28:07;10.20;93.70
76099;DHT22;64828;49.956;8.636;2023-04-29T00:28:23;10.20;93.70
76099;DHT22;64828;49.956;8.636;2023-04-29T00:28:39;10.20;93.70
76099;DHT22;64828;49.956;8.636;2023-04-29T00:28:55;10.30;93.70
76099;DHT22;64828;49.956;8.636;2023-04-29T00:29:11;10.30;93.70
76099;DHT22;64828;49.956;8.636;2023-04-29T00:29:27;10.20;93.70
76099;DHT22;64828;49.956;8.636;2023-04-29T00:29:43;10.20;93.70
76099;DHT22;64828;49.956;8.636;2023-04-29T00:29:59;10.30;93.70
76099;DHT22;64828;49.956;8.636;2023-04-29T00:30:14;10.20;93.80
76099;DHT22;64828;49.956;8.636;2023-04-29T00:30:31;10.30;93.80
76099;DHT22;64828;49.956;8.636;2023-04-29T00:30:49;10.30;93.80
76099;DHT22;64828;49.956;8.636;2023-04-29T00:31:05;10.30;93.90
76099;DHT22;64828;49.956;8.636;2023-04-29T00:31:21;10.30;93.90
76099;DHT22;64828;49.956;8.636;2023-04-29T00:31:36;10.30;93.90
76099;DHT22;64828;49.956;8.636;2023-04-29T00:31:52;10.30;93.90
76099;DHT22;64828;49.956;8.636;2023-04-29T00:32:08;10.30;93.90
76099;DHT22;64828;49.956;8.636;2023-04-29T00:32:24;10.30;93.90
76099;DHT22;64828;49.956;8.636;2023-04-29T00:32:39;10.30;94.00
76099;DHT22;64828;49.956;8.636;2023-04-29T00:32:55;10.30;93.90
76099;DHT22;64828;49.956;8.636;2023-04-29T00:33:11;10.20;93.90
76099;DHT22;64828;49.956;8.636;2023-04-29T00:33:27;10.30;94.00
76099;DHT22;64828;49.956;8.636;2023-04-29T00:33:42;10.30;94.00
76099;DHT22;64828;49.956;8.636;2023-04-29T00:33:58;10.30;94.00
76099;DHT22;64828;49.956;8.636;2023-04-29T00:34:14;10.30;93.90
76099;DHT22;64828;49.956;8.636;2023-04-29T00:34:29;10.30;94.00
76099;DHT22;64828;49.956;8.636;2023-04-29T00:34:45;10.30;94.00
76099;DHT22;64828;49.956;8.636;2023-04-29T00:35:01;10.30;94.00
76099;DHT22;64828;49.956;8.636;2023-04-29T00:35:18;10.30;94.00
76099;DHT22;64828;49.956;8.636;2023-04-29T00:35:34;10.30;94.00
76099;DHT22;64828;49.956;8.636;2023-04-29T00:35:50;10.30;94.00
76099;DHT22;64828;49.956;8.636;2023-04-29T00:36:06;10.30;94.00
76099;DHT22;64828;49.956;8.636;2023-04-29T00:36:22;10.30;94.00
76099;DHT22;64828;49.956;8.636;2023-04-29T00:36:40;10.30;94.00
76099;DHT22;64828;49.956;8.636;2023-04-29T00:36:56;10.30;94.00
76099;DHT22;64828;49.956;8.636;2023-04-29T00:37:11;10.30;93.90
76099;DHT22;64828;49.956;8.636;2023-04-29T00:37:27;10.30;93.90
76099;DHT22;64828;49.956;8.636;2023-04-29T00:37:43;10.30;93.90
76099;DHT22;64828;49.956;8.636;2023-04-29T00:37:58;10.30;93.90
76099;DHT22;64828;49.956;8.636;2023-04-29T00:38:14;10.30;93.90
76099;DHT22;64828;49.956;8.636;2023-04-29T00:38:30;10.30;93.90
76099;DHT22;64828;49.956;8.636;2023-04-29T00:38:45;10.30;94.00
76099;DHT22;64828;49.956;8.636;2023-04-29T00:39:01;10.30;94.00
76099;DHT22;64828;49.956;8.636;2023-04-29T00:39:18;10.30;94.00
76099;DHT22;64828;49.956;8.636;2023-04-29T00:39:34;10.30;94.00
76099;DHT22;64828;49.956;8.636;2023-04-29T00:39:49;10.30;94.00
76099;DHT22;64828;49.956;8.636;2023-04-29T00:40:06;10.30;94.00
76099;DHT22;64828;49.956;8.636;2023-04-29T00:40:23;10.30;93.90
76099;DHT22;64828;49.956;8.636;2023-04-29T00:40:39;10.30;93.90
76099;DHT22;64828;49.956;8.636;2023-04-29T00:40:54;10.30;93.90
76099;DHT22;64828;49.956;8.636;2023-04-29T00:41:11;10.30;93.90
76099;DHT22;64828;49.956;8.636;2023-04-29T00:41:31;10.30;93.90
76099;DHT22;64828;49.956;8.636;2023-04-29T00:41:48;10.30;93.90
76099;DHT22;64828;49.956;8.636;2023-04-29T00:42:03;10.30;93.90
76099;DHT22;64828;49.956;8.636;2023-04-29T00:42:19;10.30;94.00
76099;DHT22;64828;49.956;8.636;2023-04-29T00:42:36;10.30;94.00
76099;DHT22;64828;49.956;8.636;2023-04-29T00:42:51;10.30;94.00
76099;DHT22;64828;49.956;8.636;2023-04-29T00:43:07;10.40;94.00
76099;DHT22;64828;49.956;8.636;2023-04-29T00:43:24;10.40;94.00
76099;DHT22;64828;49.956;8.636;2023-04-29T00:43:45;10.30;94.00
76099;DHT22;64828;49.956;8.636;2023-04-29T00:44:01;10.30;94.00
76099;DHT22;64828;49.956;8.636;2023-04-29T00:44:17;10.40;94.10
76099;DHT22;64828;49.956;8.636;2023-04-29T00:44:32;10.40;94.10
76099;DHT22;64828;49.956;8.636;2023-04-29T00:44:48;10.40;94.10
76099;DHT22;64828;49.956;8.636;2023-04-29T00:45:04;10.40;94.10
76099;DHT22;64828;49.956;8.636;2023-04-29T00:45:21;10.40;94.10
76099;DHT22;64828;49.956;8.636;2023-04-29T00:45:37;10.40;94.10
76099;DHT22;64828;49.956;8.636;2023-04-29T00:45:52;10.40;94.10
76099;DHT22;64828;49.956;8.636;2023-04-29T00:46:08;10.40;94.10
76099;DHT22;64828;49.956;8.636;2023-04-29T00:46:24;10.40;94.20
76099;DHT22;64828;49.956;8.636;2023-04-29T00:46:40;10.40;94.10
76099;DHT22;64828;49.956;8.636;2023-04-29T00:46:55;10.40;94.10
76099;DHT22;64828;49.956;8.636;2023-04-29T00:47:11;10.40;94.10
76099;DHT22;64828;49.956;8.636;2023-04-29T00:47:27;10.40;94.00
76099;DHT22;64828;49.956;8.636;2023-04-29T00:47:42;10.40;94.00
76099;DHT22;64828;49.956;8.636;2023-04-29T00:47:58;10.40;94.00
76099;DHT22;64828;49.956;8.636;2023-04-29T00:48:14;10.40;94.00
76099;DHT22;64828;49.956;8.636;2023-04-29T00:48:30;10.40;94.00
76099;DHT22;64828;49.956;8.636;2023-04-29T00:48:47;10.40;94.00
76099;DHT22;64828;49.956;8.636;2023-04-29T00:49:03;10.40;94.00
76099;DHT22;64828;49.956;8.636;2023-04-29T00:49:19;10.40;94.00
76099;DHT22;64828;49.956;8.636;2023-04-29T00:49:35;10.40;94.00
76099;DHT22;64828;49.956;8.636;2023-04-29T00:49:50;10.40;94.00
76099;DHT22;64828;49.956;8.636;2023-04-29T00:50:07;10.40;94.00
76099;DHT22;64828;49.956;8.636;2023-04-29T00:50:23;10.40;94.00
76099;DHT22;64828;49.956;8.636;2023-04-29T00:50:39;10.40;94.00
76099;DHT22;64828;49.956;8.636;2023-04-29T00:50:54;10.40;94.00
76099;DHT22;64828;49.956;8.636;2023-04-29T00:51:10;10.40;94.00
76099;DHT22;64828;49.956;8.636;2023-04-29T00:51:26;10.40;94.00
76099;DHT22;64828;49.956;8.636;2023-04-29T00:51:43;10.40;94.00
76099;DHT22;64828;49.956;8.636;2023-04-29T00:51:59;10.40;94.00
76099;DHT22;64828;49.956;8.636;2023-04-29T00:52:16;10.40;94.00
76099;DHT22;64828;49.956;8.636;2023-04-29T00:52:33;10.40;94.00
76099;DHT22;64828;49.956;8.636;2023-04-29T00:52:50;10.50;94.00
76099;DHT22;64828;49.956;8.636;2023-04-29T00:53:08;10.50;94.00
76099;DHT22;64828;49.956;8.636;2023-04-29T00:53:27;10.50;94.00
76099;DHT22;64828;49.956;8.636;2023-04-29T00:53:43;10.50;94.00
76099;DHT22;64828;49.956;8.636;2023-04-29T00:53:59;10.50;94.00
76099;DHT22;64828;49.956;8.636;2023-04-29T00:54:15;10.50;94.00
76099;DHT22;64828;49.956;8.636;2023-04-29T00:54:32;10.50;94.00
76099;DHT22;64828;49.956;8.636;2023-04-29T00:54:50;10.50;94.00
76099;DHT22;64828;49.956;8.636;2023-04-29T00:55:06;10.50;94.00
76099;DHT22;64828;49.956;8.636;2023-04-29T00:55:23;10.50;94.00
76099;DHT22;64828;49.956;8.636;2023-04-29T00:55:45;10.50;94.00
76099;DHT22;64828;49.956;8.636;2023-04-29T00:56:02;10.50;94.00
76099;DHT22;64828;49.956;8.636;2023-04-29T00:56:18;10.50;94.10
76099;DHT22;64828;49.956;8.636;2023-04-29T00:56:36;10.60;94.10
76099;DHT22;64828;49.956;8.636;2023-04-29T00:56:56;10.60;94.10
76099;DHT22;64828;49.956;8.636;2023-04-29T00:57:14;10.60;94.10
76099;DHT22;64828;49.956;8.636;2023-04-29T00:57:29;10.60;94.10
76099;DHT22;64828;49.956;8.636;2023-04-29T00:57:45;10.60;94.10
76099;DHT22;64828;49.956;8.636;2023-04-29T00:58:02;10.60;94.10
76099;DHT22;64828;49.956;8.636;2023-04-29T00:58:18;10.60;94.10
76099;DHT22;64828;49.956;8.636;2023-04-29T00:58:34;10.60;94.10
76099;DHT22;64828;49.956;8.636;2023-04-29T00:58:50;10.60;94.10
76099;DHT22;64828;49.956;8.636;2023-04-29T00:59:08;10.60;94.10
76099;DHT22;64828;49.956;8.636;2023-04-29T00:59:25;10.60;94.20
76099;DHT22;64828;49.956;8.636;2023-04-29T00:59:46;10.70;94.20
76099;DHT22;64828;49.956;8.636;2023-04-29T01:00:03;10.70;94.20
76099;DHT22;64828;49.956;8.636;2023-04-29T01:00:19;10.60;94.10
76099;DHT22;64828;49.956;8.636;2023-04-29T01:00:35;10.70;94.10
76099;DHT22;64828;49.956;8.636;2023-04-29T01:00:52;10.70;94.10
76099;DHT22;64828;49.956;8.636;2023-04-29T01:01:10;10.60;94.10
76099;DHT22;64828;49.956;8.636;2023-04-29T01:01:27;10.70;94.10
76099;DHT22;64828;49.956;8.636;2023-04-29T01:01:43;10.60;94.10
76099;DHT22;64828;49.956;8.636;2023-04-29T01:02:00;10.60;94.00
76099;DHT22;64828;49.956;8.636;2023-04-29T01:02:18;10.70;94.00
76099;DHT22;64828;49.956;8.636;2023-04-29T01:02:34;10.70;94.00
76099;DHT22;64828;49.956;8.636;2023-04-29T01:02:50;10.60;93.90
76099;DHT22;64828;49.956;8.636;2023-04-29T01:03:07;10.60;93.90
76099;DHT22;64828;49.956;8.636;2023-04-29T01:03:23;10.60;93.80
76099;DHT22;64828;49.956;8.636;2023-04-29T01:03:39;10.60;93.60
76099;DHT22;64828;49.956;8.636;2023-04-29T01:03:56;10.50;93.50
76099;DHT22;64828;49.956;8.636;2023-04-29T01:04:12;10.60;93.40
76099;DHT22;64828;49.956;8.636;2023-04-29T01:04:29;10.60;93.40
76099;DHT22;64828;49.956;8.636;2023-04-29T01:04:45;10.60;93.50
76099;DHT22;64828;49.956;8.636;2023-04-29T01:05:01;10.60;93.50
76099;DHT22;64828;49.956;8.636;2023-04-29T01:05:16;10.60;93.50
76099;DHT22;64828;49.956;8.636;2023-04-29T01:05:32;10.60;93.50
76099;DHT22;64828;49.956;8.636;2023-04-29T01:05:56;10.50;93.50
76099;DHT22;64828;49.956;8.636;2023-04-29T01:08:00;10.60;93.50
76099;DHT22;64828;49.956;8.636;2023-04-29T01:08:42;10.60;93.50
76099;DHT22;64828;49.956;8.636;2023-04-29T01:09:16;10.60;93.50
76099;DHT22;64828;49.956;8.636;2023-04-29T01:10:28;10.60;93.50
76099;DHT22;64828;49.956;8.636;2023-04-29T01:11:01;10.60;93.60
76099;DHT22;64828;49.956;8.636;2023-04-29T01:11:29;10.70;93.60
76099;DHT22;64828;49.956;8.636;2023-04-29T01:12:14;10.70;93.60
76099;DHT22;64828;49.956;8.636;2023-04-29T01:12:45;10.70;93.60
76099;DHT22;64828;49.956;8.636;2023-04-29T01:13:17;10.70;93.60
76099;DHT22;64828;49.956;8.636;2023-04-29T01:13:50;10.70;93.60
76099;DHT22;64828;49.956;8.636;2023-04-29T01:14:12;10.70;93.50
76099;DHT22;64828;49.956;8.636;2023-04-29T01:14:31;10.70;93.50
76099;DHT22;64828;49.956;8.636;2023-04-29T01:15:00;10.60;93.50
76099;DHT22;64828;49.956;8.636;2023-04-29T01:15:22;10.70;93.50
76099;DHT22;64828;49.956;8.636;2023-04-29T01:16:00;10.70;93.60
76099;DHT22;64828;49.956;8.636;2023-04-29T01:16:24;10.70;93.60
76099;DHT22;64828;49.956;8.636;2023-04-29T01:16:51;10.70;93.60
76099;DHT22;64828;49.956;8.636;2023-04-29T01:17:17;10.70;93.60
76099;DHT22;64828;49.956;8.636;2023-04-29T01:17:40;10.70;93.60
76099;DHT22;64828;49.956;8.636;2023-04-29T01:18:11;10.70;93.60
76099;DHT22;64828;49.956;8.636;2023-04-29T01:18:38;10.70;93.60
76099;DHT22;64828;49.956;8.636;2023-04-29T01:18:58;10.70;93.60
76099;DHT22;64828;49.956;8.636;2023-04-29T01:19:59;10.70;93.50
76099;DHT22;64828;49.956;8.636;2023-04-29T01:20:16;10.70;93.40
76099;DHT22;64828;49.956;8.636;2023-04-29T01:20:33;10.70;93.40
76099;DHT22;64828;49.956;8.636;2023-04-29T01:20:50;10.70;93.40
76099;DHT22;64828;49.956;8.636;2023-04-29T01:21:06;10.70;93.40
76099;DHT22;64828;49.956;8.636;2023-04-29T01:21:23;10.70;93.40
76099;DHT22;64828;49.956;8.636;2023-04-29T01:21:46;10.70;93.40
76099;DHT22;64828;49.956;8.636;2023-04-29T01:22:05;10.60;93.30
76099;DHT22;64828;49.956;8.636;2023-04-29T01:22:21;10.70;93.30
76099;DHT22;64828;49.956;8.636;2023-04-29T01:22:37;10.70;93.30
76099;DHT22;64828;49.956;8.636;2023-04-29T01:22:54;10.70;93.30
76099;DHT22;64828;49.956;8.636;2023-04-29T01:23:09;10.70;93.30
76099;DHT22;64828;49.956;8.636;2023-04-29T01:23:28;10.60;93.30
76099;DHT22;64828;49.956;8.636;2023-04-29T01:23:44;10.70;93.30
76099;DHT22;64828;49.956;8.636;2023-04-29T01:24:00;10.60;93.30
76099;DHT22;64828;49.956;8.636;2023-04-29T01:24:16;10.70;93.40
76099;DHT22;64828;49.956;8.636;2023-04-29T01:24:31;10.70;93.40
76099;DHT22;64828;49.956;8.636;2023-04-29T01:24:48;10.70;93.40
76099;DHT22;64828;49.956;8.636;2023-04-29T01:25:05;10.70;93.50
76099;DHT22;64828;49.956;8.636;2023-04-29T01:25:21;10.70;93.50
76099;DHT22;64828;49.956;8.636;2023-04-29T01:25:37;10.70;93.50
76099;DHT22;64828;49.956;8.636;2023-04-29T01:25:53;10.70;93.50
76099;DHT22;64828;49.956;8.636;2023-04-29T01:26:09;10.70;93.50
76099;DHT22;64828;49.956;8.636;2023-04-29T01:26:27;10.70;93.50
76099;DHT22;64828;49.956;8.636;2023-04-29T01:27:51;10.70;93.60
76099;DHT22;64828;49.956;8.636;2023-04-29T01:31:07;10.70;93.50
76099;DHT22;64828;49.956;8.636;2023-04-29T01:31:53;10.70;93.50
76099;DHT22;64828;49.956;8.636;2023-04-29T01:32:28;10.70;93.40
76099;DHT22;64828;49.956;8.636;2023-04-29T01:34:22;10.80;93.50
76099;DHT22;64828;49.956;8.636;2023-04-29T01:38:38;10.90;93.70
76099;DHT22;64828;49.956;8.636;2023-04-29T01:39:36;10.90;93.80
76099;DHT22;64828;49.956;8.636;2023-04-29T01:40:11;10.90;93.80
76099;DHT22;64828;49.956;8.636;2023-04-29T01:40:46;10.90;93.80
76099;DHT22;64828;49.956;8.636;2023-04-29T01:41:41;10.90;93.80
76099;DHT22;64828;49.956;8.636;2023-04-29T01:42:21;11.00;93.80
76099;DHT22;64828;49.956;8.636;2023-04-29T01:43:04;10.90;93.80
76099;DHT22;64828;49.956;8.636;2023-04-29T01:43:28;11.00;93.80
76099;DHT22;64828;49.956;8.636;2023-04-29T01:43:48;11.00;93.80
76099;DHT22;64828;49.956;8.636;2023-04-29T01:44:07;11.00;93.80
76099;DHT22;64828;49.956;8.636;2023-04-29T01:44:35;11.00;93.80
76099;DHT22;64828;49.956;8.636;2023-04-29T01:44:54;11.00;93.80
76099;DHT22;64828;49.956;8.636;2023-04-29T01:45:17;11.00;93.80
76099;DHT22;64828;49.956;8.636;2023-04-29T01:45:37;11.00;93.80
76099;DHT22;64828;49.956;8.636;2023-04-29T01:45:57;11.00;93.80
76099;DHT22;64828;49.956;8.636;2023-04-29T01:46:15;11.00;93.80
76099;DHT22;64828;49.956;8.636;2023-04-29T01:46:34;11.00;93.80
76099;DHT22;64828;49.956;8.636;2023-04-29T01:46:52;11.00;93.80
76099;DHT22;64828;49.956;8.636;2023-04-29T01:47:12;11.00;93.80
76099;DHT22;64828;49.956;8.636;2023-04-29T01:47:28;11.00;93.70
76099;DHT22;64828;49.956;8.636;2023-04-29T01:47:45;11.00;93.80
76099;DHT22;64828;49.956;8.636;2023-04-29T01:48:02;11.00;93.70
76099;DHT22;64828;49.956;8.636;2023-04-29T01:48:19;11.00;93.70
76099;DHT22;64828;49.956;8.636;2023-04-29T01:48:35;11.00;93.70
76099;DHT22;64828;49.956;8.636;2023-04-29T01:48:52;11.10;93.70
76099;DHT22;64828;49.956;8.636;2023-04-29T01:49:09;11.10;93.70
76099;DHT22;64828;49.956;8.636;2023-04-29T01:49:25;11.10;93.70
76099;DHT22;64828;49.956;8.636;2023-04-29T01:49:41;11.10;93.70
76099;DHT22;64828;49.956;8.636;2023-04-29T01:49:57;11.10;93.70
76099;DHT22;64828;49.956;8.636;2023-04-29T01:50:12;11.10;93.70
76099;DHT22;64828;49.956;8.636;2023-04-29T01:50:28;11.10;93.60
76099;DHT22;64828;49.956;8.636;2023-04-29T01:50:44;11.10;93.60
76099;DHT22;64828;49.956;8.636;2023-04-29T01:51:00;11.10;93.60
76099;DHT22;64828;49.956;8.636;2023-04-29T01:51:16;11.10;93.60
76099;DHT22;64828;49.956;8.636;2023-04-29T01:51:31;11.10;93.60
76099;DHT22;64828;49.956;8.636;2023-04-29T01:51:48;11.10;93.60
76099;DHT22;64828;49.956;8.636;2023-04-29T01:52:04;11.10;93.60
76099;DHT22;64828;49.956;8.636;2023-04-29T01:52:21;11.10;93.60
76099;DHT22;64828;49.956;8.636;2023-04-29T01:52:38;11.10;93.60
76099;DHT22;64828;49.956;8.636;2023-04-29T01:52:53;11.10;93.60
76099;DHT22;64828;49.956;8.636;2023-04-29T01:53:09;11.10;93.60
76099;DHT22;64828;49.956;8.636;2023-04-29T01:53:24;11.10;93.60
76099;DHT22;64828;49.956;8.636;2023-04-29T01:53:40;11.10;93.60
76099;DHT22;64828;49.956;8.636;2023-04-29T01:53:55;11.10;93.60
76099;DHT22;64828;49.956;8.636;2023-04-29T01:54:11;11.10;93.60
76099;DHT22;64828;49.956;8.636;2023-04-29T01:54:27;11.10;93.60
76099;DHT22;64828;49.956;8.636;2023-04-29T01:54:42;11.10;93.60
76099;DHT22;64828;49.956;8.636;2023-04-29T01:54:58;11.10;93.60
76099;DHT22;64828;49.956;8.636;2023-04-29T01:55:14;11.10;93.60
76099;DHT22;64828;49.956;8.636;2023-04-29T01:55:29;11.10;93.60
76099;DHT22;64828;49.956;8.636;2023-04-29T01:55:45;11.10;93.60
76099;DHT22;64828;49.956;8.636;2023-04-29T01:56:00;11.10;93.60
76099;DHT22;64828;49.956;8.636;2023-04-29T01:56:16;11.10;93.60
76099;DHT22;64828;49.956;8.636;2023-04-29T01:56:32;11.10;93.60
76099;DHT22;64828;49.956;8.636;2023-04-29T01:56:47;11.10;93.60
76099;DHT22;64828;49.956;8.636;2023-04-29T01:57:03;11.10;93.60
76099;DHT22;64828;49.956;8.636;2023-04-29T01:57:19;11.20;93.60
76099;DHT22;64828;49.956;8.636;2023-04-29T01:57:35;11.10;93.60
76099;DHT22;64828;49.956;8.636;2023-04-29T01:57:50;11.10;93.60
76099;DHT22;64828;49.956;8.636;2023-04-29T01:58:06;11.10;93.60
76099;DHT22;64828;49.956;8.636;2023-04-29T01:58:21;11.10;93.50
76099;DHT22;64828;49.956;8.636;2023-04-29T01:58:37;11.10;93.60
76099;DHT22;64828;49.956;8.636;2023-04-29T01:58:53;11.10;93.60
76099;DHT22;64828;49.956;8.636;2023-04-29T01:59:08;11.10;93.60
76099;DHT22;64828;49.956;8.636;2023-04-29T01:59:25;11.20;93.60
76099;DHT22;64828;49.956;8.636;2023-04-29T01:59:40;11.10;93.60
76099;DHT22;64828;49.956;8.636;2023-04-29T01:59:56;11.10;93.60
76099;DHT22;64828;49.956;8.636;2023-04-29T02:00:12;11.10;93.60
76099;DHT22;64828;49.956;8.636;2023-04-29T02:00:27;11.20;93.60
76099;DHT22;64828;49.956;8.636;2023-04-29T02:00:43;11.20;93.60
76099;DHT22;64828;49.956;8.636;2023-04-29T02:00:59;11.20;93.60
76099;DHT22;64828;49.956;8.636;2023-04-29T02:01:17;11.20;93.60
76099;DHT22;64828;49.956;8.636;2023-04-29T02:01:33;11.20;93.70
76099;DHT22;64828;49.956;8.636;2023-04-29T02:01:48;11.20;93.60
76099;DHT22;64828;49.956;8.636;2023-04-29T02:02:04;11.20;93.70
76099;DHT22;64828;49.956;8.636;2023-04-29T02:02:20;11.20;93.60
76099;DHT22;64828;49.956;8.636;2023-04-29T02:02:37;11.20;93.60
76099;DHT22;64828;49.956;8.636;2023-04-29T02:02:53;11.20;93.70
76099;DHT22;64828;49.956;8.636;2023-04-29T02:03:09;11.20;93.60
76099;DHT22;64828;49.956;8.636;2023-04-29T02:03:24;11.20;93.60
76099;DHT22;64828;49.956;8.636;2023-04-29T02:03:40;11.20;93.60
76099;DHT22;64828;49.956;8.636;2023-04-29T02:03:55;11.20;93.60
76099;DHT22;64828;49.956;8.636;2023-04-29T02:04:11;11.20;93.70
76099;DHT22;64828;49.956;8.636;2023-04-29T02:04:27;11.20;93.70
76099;DHT22;64828;49.956;8.636;2023-04-29T02:04:42;11.20;93.70
76099;DHT22;64828;49.956;8.636;2023-04-29T02:04:58;11.20;93.70